Terminal Aerodrome Forecast
Issued by NWS Indianapolis, IN

Home | Current Version | Previous Version | Text Only | Print | Product List | Glossary On
Versions: 1 2 3 4 5 6 7 8 9 10 11 12 13 14 15 16 17 18 19 20 21 22 23 24 25 26 27 28
000
FTUS43 KIND 042320
TAFIND
TAF
KIND 042320Z 0500/0606 34015G22KT P6SM BKN070
     FM050300 34014G20KT P6SM VCSH OVC070
     FM050500 32012G18KT P6SM VCSH OVC020
     FM050700 32012G17KT P6SM VCSH OVC010
     FM051100 33011G16KT P6SM OVC010
     FM051600 36014G22KT P6SM BKN035
     FM060200 34011G15KT P6SM FEW250=

USA.gov is the U.S. government's official web portal to all federal, state and local government web resources and services.